sensor_id;sensor_type;location;lat;lon;timestamp;P1;durP1;ratioP1;P2;durP2;ratioP2
11151;SDS011;5630;49.342;10.802;2023-02-10T00:01:05;57.33;;;41.15;;
11151;SDS011;5630;49.342;10.802;2023-02-10T00:03:35;59.40;;;41.85;;
11151;SDS011;5630;49.342;10.802;2023-02-10T00:06:01;60.00;;;39.72;;
11151;SDS011;5630;49.342;10.802;2023-02-10T00:08:28;63.40;;;42.90;;
11151;SDS011;5630;49.342;10.802;2023-02-10T00:10:57;58.47;;;39.90;;
11151;SDS011;5630;49.342;10.802;2023-02-10T00:13:24;57.85;;;41.35;;
11151;SDS011;5630;49.342;10.802;2023-02-10T00:15:50;57.72;;;40.28;;
11151;SDS011;5630;49.342;10.802;2023-02-10T00:18:16;59.53;;;40.97;;
11151;SDS011;5630;49.342;10.802;2023-02-10T00:20:41;57.27;;;40.23;;
11151;SDS011;5630;49.342;10.802;2023-02-10T00:23:07;56.40;;;39.73;;
11151;SDS011;5630;49.342;10.802;2023-02-10T00:25:35;58.03;;;39.67;;
11151;SDS011;5630;49.342;10.802;2023-02-10T00:28:02;59.00;;;41.60;;
11151;SDS011;5630;49.342;10.802;2023-02-10T00:30:28;60.28;;;42.40;;
11151;SDS011;5630;49.342;10.802;2023-02-10T00:32:54;63.70;;;43.40;;
11151;SDS011;5630;49.342;10.802;2023-02-10T00:35:20;61.97;;;43.13;;
11151;SDS011;5630;49.342;10.802;2023-02-10T00:37:49;65.18;;;44.25;;
11151;SDS011;5630;49.342;10.802;2023-02-10T00:40:15;64.17;;;45.17;;
11151;SDS011;5630;49.342;10.802;2023-02-10T00:42:41;61.45;;;43.75;;
11151;SDS011;5630;49.342;10.802;2023-02-10T00:45:06;65.07;;;44.03;;
11151;SDS011;5630;49.342;10.802;2023-02-10T00:47:32;60.33;;;44.10;;
11151;SDS011;5630;49.342;10.802;2023-02-10T00:49:58;66.90;;;44.93;;
11151;SDS011;5630;49.342;10.802;2023-02-10T00:52:23;61.70;;;42.33;;
11151;SDS011;5630;49.342;10.802;2023-02-10T00:54:50;60.67;;;43.53;;
11151;SDS011;5630;49.342;10.802;2023-02-10T00:57:15;65.47;;;44.60;;
11151;SDS011;5630;49.342;10.802;2023-02-10T00:59:41;64.07;;;45.23;;
11151;SDS011;5630;49.342;10.802;2023-02-10T01:02:06;62.73;;;44.40;;
11151;SDS011;5630;49.342;10.802;2023-02-10T01:04:32;62.87;;;44.43;;
11151;SDS011;5630;49.342;10.802;2023-02-10T01:09:39;62.45;;;42.90;;
11151;SDS011;5630;49.342;10.802;2023-02-10T01:12:05;58.30;;;41.60;;
11151;SDS011;5630;49.342;10.802;2023-02-10T01:14:31;67.30;;;45.17;;
11151;SDS011;5630;49.342;10.802;2023-02-10T01:16:57;64.68;;;44.60;;
11151;SDS011;5630;49.342;10.802;2023-02-10T01:19:23;62.07;;;44.07;;
11151;SDS011;5630;49.342;10.802;2023-02-10T01:21:48;61.53;;;43.47;;
11151;SDS011;5630;49.342;10.802;2023-02-10T01:24:14;63.97;;;42.47;;
11151;SDS011;5630;49.342;10.802;2023-02-10T01:26:39;67.00;;;44.77;;
11151;SDS011;5630;49.342;10.802;2023-02-10T01:29:05;61.87;;;43.07;;
11151;SDS011;5630;49.342;10.802;2023-02-10T01:31:31;58.57;;;41.40;;
11151;SDS011;5630;49.342;10.802;2023-02-10T01:33:56;60.27;;;43.33;;
11151;SDS011;5630;49.342;10.802;2023-02-10T01:36:23;61.30;;;42.90;;
11151;SDS011;5630;49.342;10.802;2023-02-10T01:38:49;61.75;;;43.10;;
11151;SDS011;5630;49.342;10.802;2023-02-10T01:41:17;62.83;;;43.95;;
11151;SDS011;5630;49.342;10.802;2023-02-10T01:43:58;66.75;;;43.28;;
11151;SDS011;5630;49.342;10.802;2023-02-10T01:46:26;59.42;;;41.75;;
11151;SDS011;5630;49.342;10.802;2023-02-10T01:48:53;58.85;;;41.13;;
11151;SDS011;5630;49.342;10.802;2023-02-10T01:51:22;60.92;;;41.95;;
11151;SDS011;5630;49.342;10.802;2023-02-10T01:53:52;59.10;;;40.92;;
11151;SDS011;5630;49.342;10.802;2023-02-10T01:56:18;60.43;;;41.03;;
11151;SDS011;5630;49.342;10.802;2023-02-10T01:58:44;56.00;;;39.57;;
11151;SDS011;5630;49.342;10.802;2023-02-10T02:01:10;53.93;;;38.77;;
11151;SDS011;5630;49.342;10.802;2023-02-10T02:03:36;57.13;;;40.50;;
11151;SDS011;5630;49.342;10.802;2023-02-10T02:06:06;54.40;;;40.15;;
11151;SDS011;5630;49.342;10.802;2023-02-10T02:08:32;55.90;;;39.90;;
11151;SDS011;5630;49.342;10.802;2023-02-10T02:24:31;57.67;;;40.35;;
11151;SDS011;5630;49.342;10.802;2023-02-10T02:33:01;54.90;;;40.08;;
11151;SDS011;5630;49.342;10.802;2023-02-10T02:35:37;53.97;;;39.25;;
11151;SDS011;5630;49.342;10.802;2023-02-10T02:38:10;55.97;;;40.03;;
11151;SDS011;5630;49.342;10.802;2023-02-10T02:40:36;56.27;;;40.07;;
11151;SDS011;5630;49.342;10.802;2023-02-10T02:43:02;58.53;;;40.30;;
11151;SDS011;5630;49.342;10.802;2023-02-10T02:51:00;52.08;;;38.40;;
11151;SDS011;5630;49.342;10.802;2023-02-10T02:56:13;55.45;;;40.03;;
11151;SDS011;5630;49.342;10.802;2023-02-10T02:59:18;55.17;;;38.03;;
11151;SDS011;5630;49.342;10.802;2023-02-10T03:01:51;59.13;;;40.45;;
11151;SDS011;5630;49.342;10.802;2023-02-10T03:04:21;56.88;;;38.88;;
11151;SDS011;5630;49.342;10.802;2023-02-10T03:06:48;54.30;;;37.88;;
11151;SDS011;5630;49.342;10.802;2023-02-10T03:09:13;49.93;;;36.80;;
11151;SDS011;5630;49.342;10.802;2023-02-10T03:11:39;53.60;;;39.17;;
11151;SDS011;5630;49.342;10.802;2023-02-10T03:14:05;56.33;;;40.00;;
11151;SDS011;5630;49.342;10.802;2023-02-10T03:16:31;54.87;;;37.83;;
11151;SDS011;5630;49.342;10.802;2023-02-10T03:18:56;55.23;;;39.40;;
11151;SDS011;5630;49.342;10.802;2023-02-10T03:21:22;56.50;;;37.67;;
11151;SDS011;5630;49.342;10.802;2023-02-10T03:23:47;52.53;;;37.57;;
11151;SDS011;5630;49.342;10.802;2023-02-10T03:26:13;56.23;;;39.90;;
11151;SDS011;5630;49.342;10.802;2023-02-10T03:28:38;54.67;;;37.80;;
11151;SDS011;5630;49.342;10.802;2023-02-10T03:31:05;56.93;;;39.47;;
11151;SDS011;5630;49.342;10.802;2023-02-10T03:33:32;57.92;;;39.83;;
11151;SDS011;5630;49.342;10.802;2023-02-10T03:35:58;59.17;;;38.93;;
11151;SDS011;5630;49.342;10.802;2023-02-10T03:38:24;55.77;;;38.73;;
11151;SDS011;5630;49.342;10.802;2023-02-10T03:40:50;61.83;;;39.92;;
11151;SDS011;5630;49.342;10.802;2023-02-10T03:43:17;52.70;;;39.47;;
11151;SDS011;5630;49.342;10.802;2023-02-10T03:45:43;62.63;;;40.38;;
11151;SDS011;5630;49.342;10.802;2023-02-10T03:48:09;59.30;;;40.67;;
11151;SDS011;5630;49.342;10.802;2023-02-10T03:50:35;53.27;;;38.57;;
11151;SDS011;5630;49.342;10.802;2023-02-10T03:53:01;58.10;;;40.37;;
11151;SDS011;5630;49.342;10.802;2023-02-10T03:55:26;59.07;;;40.80;;
11151;SDS011;5630;49.342;10.802;2023-02-10T03:57:52;55.30;;;38.93;;
11151;SDS011;5630;49.342;10.802;2023-02-10T04:00:18;57.13;;;39.57;;
11151;SDS011;5630;49.342;10.802;2023-02-10T04:02:44;57.70;;;40.23;;
11151;SDS011;5630;49.342;10.802;2023-02-10T04:05:09;52.93;;;38.37;;
11151;SDS011;5630;49.342;10.802;2023-02-10T04:07:35;55.57;;;38.40;;
11151;SDS011;5630;49.342;10.802;2023-02-10T04:10:01;53.47;;;38.00;;
11151;SDS011;5630;49.342;10.802;2023-02-10T04:12:27;56.90;;;40.05;;
11151;SDS011;5630;49.342;10.802;2023-02-10T04:14:53;54.97;;;38.83;;
11151;SDS011;5630;49.342;10.802;2023-02-10T04:17:19;55.13;;;40.43;;
11151;SDS011;5630;49.342;10.802;2023-02-10T04:19:44;54.10;;;37.33;;
11151;SDS011;5630;49.342;10.802;2023-02-10T04:22:10;56.33;;;37.00;;
11151;SDS011;5630;49.342;10.802;2023-02-10T04:24:35;53.03;;;37.33;;
11151;SDS011;5630;49.342;10.802;2023-02-10T04:27:01;54.77;;;37.73;;
11151;SDS011;5630;49.342;10.802;2023-02-10T04:29:27;54.27;;;37.83;;
11151;SDS011;5630;49.342;10.802;2023-02-10T04:31:52;53.80;;;36.73;;
11151;SDS011;5630;49.342;10.802;2023-02-10T04:34:18;53.00;;;37.53;;
11151;SDS011;5630;49.342;10.802;2023-02-10T04:36:43;53.60;;;36.30;;
11151;SDS011;5630;49.342;10.802;2023-02-10T04:39:09;51.40;;;36.47;;
11151;SDS011;5630;49.342;10.802;2023-02-10T04:41:34;54.03;;;38.23;;
11151;SDS011;5630;49.342;10.802;2023-02-10T04:44:00;59.03;;;38.67;;
11151;SDS011;5630;49.342;10.802;2023-02-10T04:46:25;55.70;;;39.67;;
11151;SDS011;5630;49.342;10.802;2023-02-10T04:48:51;57.03;;;40.40;;
11151;SDS011;5630;49.342;10.802;2023-02-10T04:51:17;56.03;;;37.07;;
11151;SDS011;5630;49.342;10.802;2023-02-10T04:53:42;55.97;;;37.47;;
11151;SDS011;5630;49.342;10.802;2023-02-10T04:56:14;60.75;;;38.25;;
11151;SDS011;5630;49.342;10.802;2023-02-10T04:58:40;57.53;;;38.90;;
11151;SDS011;5630;49.342;10.802;2023-02-10T05:01:05;57.30;;;38.00;;
11151;SDS011;5630;49.342;10.802;2023-02-10T05:03:31;54.83;;;36.43;;
11151;SDS011;5630;49.342;10.802;2023-02-10T05:05:57;55.23;;;37.50;;
11151;SDS011;5630;49.342;10.802;2023-02-10T05:08:22;55.97;;;38.60;;
11151;SDS011;5630;49.342;10.802;2023-02-10T05:10:52;52.10;;;36.87;;
11151;SDS011;5630;49.342;10.802;2023-02-10T05:13:18;55.65;;;37.63;;
11151;SDS011;5630;49.342;10.802;2023-02-10T05:15:44;52.80;;;36.03;;
11151;SDS011;5630;49.342;10.802;2023-02-10T05:18:11;55.92;;;37.35;;
11151;SDS011;5630;49.342;10.802;2023-02-10T05:20:36;51.87;;;35.33;;
11151;SDS011;5630;49.342;10.802;2023-02-10T05:23:02;53.27;;;36.20;;
11151;SDS011;5630;49.342;10.802;2023-02-10T05:25:28;52.00;;;36.73;;
11151;SDS011;5630;49.342;10.802;2023-02-10T05:27:53;50.43;;;34.73;;
11151;SDS011;5630;49.342;10.802;2023-02-10T05:30:19;50.63;;;35.17;;
11151;SDS011;5630;49.342;10.802;2023-02-10T05:32:44;51.47;;;36.50;;
11151;SDS011;5630;49.342;10.802;2023-02-10T05:35:10;51.13;;;35.97;;
11151;SDS011;5630;49.342;10.802;2023-02-10T05:37:36;54.03;;;36.80;;
11151;SDS011;5630;49.342;10.802;2023-02-10T05:40:02;53.00;;;36.50;;
11151;SDS011;5630;49.342;10.802;2023-02-10T05:42:29;55.00;;;35.08;;
11151;SDS011;5630;49.342;10.802;2023-02-10T05:44:54;51.40;;;36.97;;
11151;SDS011;5630;49.342;10.802;2023-02-10T05:47:20;53.67;;;35.67;;
11151;SDS011;5630;49.342;10.802;2023-02-10T05:49:45;58.53;;;41.40;;
11151;SDS011;5630;49.342;10.802;2023-02-10T05:52:11;59.07;;;39.17;;
11151;SDS011;5630;49.342;10.802;2023-02-10T05:54:36;55.60;;;38.53;;
11151;SDS011;5630;49.342;10.802;2023-02-10T05:57:02;57.40;;;38.13;;
11151;SDS011;5630;49.342;10.802;2023-02-10T05:59:28;56.50;;;37.73;;
11151;SDS011;5630;49.342;10.802;2023-02-10T06:01:54;52.27;;;37.00;;
11151;SDS011;5630;49.342;10.802;2023-02-10T06:04:20;51.20;;;35.47;;
11151;SDS011;5630;49.342;10.802;2023-02-10T06:06:45;53.07;;;36.53;;
11151;SDS011;5630;49.342;10.802;2023-02-10T06:09:11;51.67;;;35.87;;
11151;SDS011;5630;49.342;10.802;2023-02-10T06:11:37;55.40;;;36.63;;
11151;SDS011;5630;49.342;10.802;2023-02-10T06:14:02;55.80;;;36.53;;
11151;SDS011;5630;49.342;10.802;2023-02-10T06:16:28;50.53;;;34.43;;
11151;SDS011;5630;49.342;10.802;2023-02-10T06:18:54;61.47;;;40.77;;
11151;SDS011;5630;49.342;10.802;2023-02-10T06:21:20;56.63;;;37.90;;
11151;SDS011;5630;49.342;10.802;2023-02-10T06:23:47;51.92;;;37.58;;
11151;SDS011;5630;49.342;10.802;2023-02-10T06:26:13;57.43;;;39.53;;
11151;SDS011;5630;49.342;10.802;2023-02-10T06:28:39;59.00;;;40.03;;
11151;SDS011;5630;49.342;10.802;2023-02-10T06:31:04;56.37;;;39.60;;
11151;SDS011;5630;49.342;10.802;2023-02-10T06:33:32;53.58;;;37.88;;
11151;SDS011;5630;49.342;10.802;2023-02-10T06:36:00;55.13;;;37.95;;
11151;SDS011;5630;49.342;10.802;2023-02-10T06:38:30;55.33;;;37.72;;
11151;SDS011;5630;49.342;10.802;2023-02-10T06:41:00;58.70;;;39.00;;
11151;SDS011;5630;49.342;10.802;2023-02-10T06:43:25;58.60;;;42.03;;
11151;SDS011;5630;49.342;10.802;2023-02-10T06:45:51;58.87;;;40.03;;
11151;SDS011;5630;49.342;10.802;2023-02-10T06:48:17;60.07;;;41.10;;
11151;SDS011;5630;49.342;10.802;2023-02-10T06:50:42;59.63;;;39.73;;
11151;SDS011;5630;49.342;10.802;2023-02-10T06:53:08;37.13;;;23.83;;
11151;SDS011;5630;49.342;10.802;2023-02-10T06:55:33;45.70;;;29.90;;
11151;SDS011;5630;49.342;10.802;2023-02-10T06:58:00;50.45;;;34.22;;
11151;SDS011;5630;49.342;10.802;2023-02-10T07:00:26;84.63;;;52.17;;
11151;SDS011;5630;49.342;10.802;2023-02-10T07:02:52;73.67;;;46.60;;
11151;SDS011;5630;49.342;10.802;2023-02-10T07:05:17;63.93;;;41.43;;
11151;SDS011;5630;49.342;10.802;2023-02-10T07:07:44;60.63;;;39.63;;
11151;SDS011;5630;49.342;10.802;2023-02-10T07:10:09;57.30;;;35.43;;
11151;SDS011;5630;49.342;10.802;2023-02-10T07:12:36;53.97;;;35.00;;
11151;SDS011;5630;49.342;10.802;2023-02-10T07:15:02;55.05;;;34.38;;
11151;SDS011;5630;49.342;10.802;2023-02-10T07:17:28;51.53;;;33.77;;
11151;SDS011;5630;49.342;10.802;2023-02-10T07:19:53;50.10;;;33.20;;
11151;SDS011;5630;49.342;10.802;2023-02-10T07:22:20;57.28;;;35.15;;
11151;SDS011;5630;49.342;10.802;2023-02-10T07:24:46;53.13;;;33.83;;
11151;SDS011;5630;49.342;10.802;2023-02-10T07:27:12;50.07;;;32.83;;
11151;SDS011;5630;49.342;10.802;2023-02-10T07:29:37;55.73;;;34.60;;
11151;SDS011;5630;49.342;10.802;2023-02-10T07:32:03;54.50;;;35.53;;
11151;SDS011;5630;49.342;10.802;2023-02-10T07:34:29;56.97;;;37.63;;
11151;SDS011;5630;49.342;10.802;2023-02-10T07:36:58;56.58;;;36.35;;
11151;SDS011;5630;49.342;10.802;2023-02-10T07:39:24;56.97;;;36.77;;
11151;SDS011;5630;49.342;10.802;2023-02-10T07:41:50;61.27;;;39.17;;
11151;SDS011;5630;49.342;10.802;2023-02-10T07:44:16;60.60;;;38.55;;
11151;SDS011;5630;49.342;10.802;2023-02-10T07:46:43;60.85;;;37.85;;
11151;SDS011;5630;49.342;10.802;2023-02-10T07:49:08;64.47;;;40.43;;
11151;SDS011;5630;49.342;10.802;2023-02-10T07:51:34;61.27;;;39.57;;
11151;SDS011;5630;49.342;10.802;2023-02-10T07:53:59;66.73;;;41.57;;
11151;SDS011;5630;49.342;10.802;2023-02-10T07:56:25;63.67;;;39.63;;
11151;SDS011;5630;49.342;10.802;2023-02-10T07:58:51;62.73;;;41.13;;
11151;SDS011;5630;49.342;10.802;2023-02-10T08:01:16;58.37;;;38.47;;
11151;SDS011;5630;49.342;10.802;2023-02-10T08:03:42;59.07;;;40.33;;
11151;SDS011;5630;49.342;10.802;2023-02-10T08:06:07;59.73;;;40.27;;
11151;SDS011;5630;49.342;10.802;2023-02-10T08:08:33;53.43;;;37.50;;
11151;SDS011;5630;49.342;10.802;2023-02-10T08:10:59;56.63;;;39.03;;
11151;SDS011;5630;49.342;10.802;2023-02-10T08:13:24;57.80;;;39.07;;
11151;SDS011;5630;49.342;10.802;2023-02-10T08:15:52;58.38;;;37.95;;
11151;SDS011;5630;49.342;10.802;2023-02-10T08:18:17;58.80;;;39.83;;
11151;SDS011;5630;49.342;10.802;2023-02-10T08:20:43;56.57;;;39.50;;
11151;SDS011;5630;49.342;10.802;2023-02-10T08:23:13;62.50;;;38.00;;
11151;SDS011;5630;49.342;10.802;2023-02-10T08:25:40;58.00;;;40.00;;
11151;SDS011;5630;49.342;10.802;2023-02-10T08:28:06;56.30;;;37.60;;
11151;SDS011;5630;49.342;10.802;2023-02-10T08:30:31;57.30;;;38.80;;
11151;SDS011;5630;49.342;10.802;2023-02-10T08:32:57;56.10;;;38.63;;
11151;SDS011;5630;49.342;10.802;2023-02-10T08:35:23;56.25;;;38.88;;
11151;SDS011;5630;49.342;10.802;2023-02-10T08:37:49;56.95;;;38.40;;
11151;SDS011;5630;49.342;10.802;2023-02-10T08:40:15;58.37;;;39.73;;
11151;SDS011;5630;49.342;10.802;2023-02-10T08:42:40;54.53;;;38.40;;
11151;SDS011;5630;49.342;10.802;2023-02-10T08:45:06;55.53;;;38.73;;
11151;SDS011;5630;49.342;10.802;2023-02-10T08:47:32;55.27;;;37.47;;
11151;SDS011;5630;49.342;10.802;2023-02-10T08:49:58;52.50;;;36.40;;
11151;SDS011;5630;49.342;10.802;2023-02-10T08:52:24;57.30;;;36.47;;
11151;SDS011;5630;49.342;10.802;2023-02-10T08:54:50;50.77;;;35.03;;
11151;SDS011;5630;49.342;10.802;2023-02-10T08:57:15;55.30;;;36.23;;
11151;SDS011;5630;49.342;10.802;2023-02-10T08:59:41;60.27;;;36.80;;
11151;SDS011;5630;49.342;10.802;2023-02-10T09:02:06;49.57;;;35.07;;
11151;SDS011;5630;49.342;10.802;2023-02-10T09:04:34;53.08;;;34.85;;
11151;SDS011;5630;49.342;10.802;2023-02-10T09:07:01;56.35;;;35.70;;
11151;SDS011;5630;49.342;10.802;2023-02-10T09:09:26;58.27;;;35.87;;
11151;SDS011;5630;49.342;10.802;2023-02-10T09:11:52;56.47;;;36.30;;
11151;SDS011;5630;49.342;10.802;2023-02-10T09:14:18;52.03;;;34.28;;
11151;SDS011;5630;49.342;10.802;2023-02-10T09:16:44;55.03;;;35.13;;
11151;SDS011;5630;49.342;10.802;2023-02-10T09:19:10;58.97;;;35.47;;
11151;SDS011;5630;49.342;10.802;2023-02-10T09:21:35;51.73;;;34.37;;
11151;SDS011;5630;49.342;10.802;2023-02-10T09:24:01;50.50;;;32.97;;
11151;SDS011;5630;49.342;10.802;2023-02-10T09:26:26;53.03;;;34.83;;
11151;SDS011;5630;49.342;10.802;2023-02-10T09:28:52;50.63;;;34.07;;
11151;SDS011;5630;49.342;10.802;2023-02-10T09:31:18;50.50;;;33.03;;
11151;SDS011;5630;49.342;10.802;2023-02-10T09:33:43;54.97;;;34.07;;
11151;SDS011;5630;49.342;10.802;2023-02-10T09:36:12;52.55;;;32.70;;
11151;SDS011;5630;49.342;10.802;2023-02-10T09:38:38;54.78;;;32.45;;
11151;SDS011;5630;49.342;10.802;2023-02-10T09:44:05;51.10;;;33.47;;
11151;SDS011;5630;49.342;10.802;2023-02-10T09:51:43;49.63;;;32.30;;
11151;SDS011;5630;49.342;10.802;2023-02-10T09:54:11;51.33;;;32.47;;
11151;SDS011;5630;49.342;10.802;2023-02-10T09:56:37;47.57;;;30.33;;
11151;SDS011;5630;49.342;10.802;2023-02-10T09:59:04;51.03;;;32.47;;
11151;SDS011;5630;49.342;10.802;2023-02-10T10:04:14;50.88;;;32.05;;
11151;SDS011;5630;49.342;10.802;2023-02-10T10:06:46;54.97;;;31.52;;
11151;SDS011;5630;49.342;10.802;2023-02-10T10:11:50;59.03;;;32.97;;
11151;SDS011;5630;49.342;10.802;2023-02-10T10:14:24;56.35;;;32.85;;
11151;SDS011;5630;49.342;10.802;2023-02-10T10:17:08;53.00;;;31.77;;
11151;SDS011;5630;49.342;10.802;2023-02-10T10:22:38;55.00;;;33.13;;
11151;SDS011;5630;49.342;10.802;2023-02-10T10:28:21;46.47;;;30.97;;
11151;SDS011;5630;49.342;10.802;2023-02-10T10:35:56;49.70;;;31.30;;
11151;SDS011;5630;49.342;10.802;2023-02-10T10:38:30;43.03;;;30.43;;
11151;SDS011;5630;49.342;10.802;2023-02-10T10:41:13;47.10;;;30.20;;
11151;SDS011;5630;49.342;10.802;2023-02-10T10:43:47;49.17;;;30.50;;
11151;SDS011;5630;49.342;10.802;2023-02-10T10:46:17;46.80;;;33.50;;
11151;SDS011;5630;49.342;10.802;2023-02-10T10:48:55;49.40;;;33.23;;
11151;SDS011;5630;49.342;10.802;2023-02-10T10:51:21;46.63;;;30.87;;
11151;SDS011;5630;49.342;10.802;2023-02-10T10:53:54;44.90;;;30.20;;
11151;SDS011;5630;49.342;10.802;2023-02-10T10:59:17;24.73;;;17.03;;
11151;SDS011;5630;49.342;10.802;2023-02-10T11:01:55;33.70;;;25.13;;
11151;SDS011;5630;49.342;10.802;2023-02-10T11:04:22;42.73;;;29.80;;
11151;SDS011;5630;49.342;10.802;2023-02-10T11:06:53;38.03;;;28.67;;
11151;SDS011;5630;49.342;10.802;2023-02-10T11:09:23;39.57;;;30.07;;
11151;SDS011;5630;49.342;10.802;2023-02-10T11:12:46;46.67;;;29.77;;
11151;SDS011;5630;49.342;10.802;2023-02-10T11:14:52;42.93;;;31.53;;
11151;SDS011;5630;49.342;10.802;2023-02-10T11:19:56;40.77;;;31.13;;
11151;SDS011;5630;49.342;10.802;2023-02-10T11:22:23;43.73;;;29.93;;
11151;SDS011;5630;49.342;10.802;2023-02-10T11:24:53;45.03;;;32.17;;
11151;SDS011;5630;49.342;10.802;2023-02-10T11:27:21;41.47;;;30.27;;
11151;SDS011;5630;49.342;10.802;2023-02-10T11:29:48;40.37;;;30.03;;
11151;SDS011;5630;49.342;10.802;2023-02-10T11:34:46;43.37;;;30.97;;
11151;SDS011;5630;49.342;10.802;2023-02-10T11:37:30;39.60;;;29.00;;
11151;SDS011;5630;49.342;10.802;2023-02-10T11:40:01;40.87;;;29.73;;
11151;SDS011;5630;49.342;10.802;2023-02-10T11:42:45;37.87;;;28.77;;
11151;SDS011;5630;49.342;10.802;2023-02-10T11:45:17;36.87;;;28.10;;
11151;SDS011;5630;49.342;10.802;2023-02-10T11:47:43;38.23;;;29.10;;
11151;SDS011;5630;49.342;10.802;2023-02-10T11:50:18;36.67;;;28.23;;
11151;SDS011;5630;49.342;10.802;2023-02-10T11:52:49;39.87;;;29.23;;
11151;SDS011;5630;49.342;10.802;2023-02-10T11:55:15;40.17;;;29.73;;
11151;SDS011;5630;49.342;10.802;2023-02-10T11:57:48;41.20;;;30.20;;
11151;SDS011;5630;49.342;10.802;2023-02-10T12:25:50;41.07;;;29.30;;
11151;SDS011;5630;49.342;10.802;2023-02-10T12:28:47;40.07;;;29.60;;
11151;SDS011;5630;49.342;10.802;2023-02-10T12:31:29;42.93;;;29.97;;
11151;SDS011;5630;49.342;10.802;2023-02-10T12:34:13;40.20;;;29.60;;
11151;SDS011;5630;49.342;10.802;2023-02-10T12:45:28;45.73;;;30.47;;
11151;SDS011;5630;49.342;10.802;2023-02-10T12:48:15;44.33;;;29.77;;
11151;SDS011;5630;49.342;10.802;2023-02-10T12:53:28;43.60;;;30.03;;
11151;SDS011;5630;49.342;10.802;2023-02-10T12:56:37;43.50;;;29.73;;
11151;SDS011;5630;49.342;10.802;2023-02-10T12:59:12;40.40;;;28.93;;
11151;SDS011;5630;49.342;10.802;2023-02-10T13:02:24;38.10;;;29.30;;
11151;SDS011;5630;49.342;10.802;2023-02-10T13:04:43;38.87;;;28.53;;
11151;SDS011;5630;49.342;10.802;2023-02-10T13:09:39;39.47;;;28.83;;
11151;SDS011;5630;49.342;10.802;2023-02-10T13:14:48;39.80;;;29.97;;
11151;SDS011;5630;49.342;10.802;2023-02-10T13:17:17;42.07;;;29.00;;
11151;SDS011;5630;49.342;10.802;2023-02-10T13:24:57;35.60;;;27.53;;
11151;SDS011;5630;49.342;10.802;2023-02-10T13:35:55;40.23;;;30.27;;
11151;SDS011;5630;49.342;10.802;2023-02-10T13:38:21;41.80;;;31.53;;
11151;SDS011;5630;49.342;10.802;2023-02-10T13:40:52;37.77;;;27.80;;
11151;SDS011;5630;49.342;10.802;2023-02-10T13:43:39;41.03;;;28.63;;
11151;SDS011;5630;49.342;10.802;2023-02-10T13:46:05;41.40;;;30.23;;
11151;SDS011;5630;49.342;10.802;2023-02-10T13:48:43;42.17;;;29.90;;
11151;SDS011;5630;49.342;10.802;2023-02-10T13:51:09;41.13;;;30.63;;
11151;SDS011;5630;49.342;10.802;2023-02-10T13:58:51;39.07;;;29.43;;
11151;SDS011;5630;49.342;10.802;2023-02-10T14:03:55;40.40;;;29.30;;
11151;SDS011;5630;49.342;10.802;2023-02-10T14:06:31;41.67;;;29.07;;
11151;SDS011;5630;49.342;10.802;2023-02-10T14:09:06;39.10;;;28.83;;
11151;SDS011;5630;49.342;10.802;2023-02-10T14:11:43;38.93;;;29.23;;
11151;SDS011;5630;49.342;10.802;2023-02-10T14:14:25;38.43;;;28.17;;
11151;SDS011;5630;49.342;10.802;2023-02-10T14:19:31;38.43;;;29.57;;
11151;SDS011;5630;49.342;10.802;2023-02-10T14:21:59;38.57;;;28.27;;
11151;SDS011;5630;49.342;10.802;2023-02-10T14:24:32;38.50;;;28.80;;
11151;SDS011;5630;49.342;10.802;2023-02-10T14:27:01;37.07;;;28.23;;
11151;SDS011;5630;49.342;10.802;2023-02-10T14:29:29;37.40;;;27.97;;
11151;SDS011;5630;49.342;10.802;2023-02-10T14:31:58;37.93;;;28.70;;
11151;SDS011;5630;49.342;10.802;2023-02-10T14:34:28;41.50;;;29.53;;
11151;SDS011;5630;49.342;10.802;2023-02-10T14:36:57;41.63;;;29.43;;
11151;SDS011;5630;49.342;10.802;2023-02-10T14:39:25;41.07;;;30.10;;
11151;SDS011;5630;49.342;10.802;2023-02-10T14:41:59;39.17;;;28.60;;
11151;SDS011;5630;49.342;10.802;2023-02-10T14:44:36;39.23;;;28.30;;
11151;SDS011;5630;49.342;10.802;2023-02-10T14:47:14;40.53;;;29.37;;
11151;SDS011;5630;49.342;10.802;2023-02-10T14:49:41;39.60;;;28.80;;
11151;SDS011;5630;49.342;10.802;2023-02-10T14:52:18;41.30;;;29.83;;
11151;SDS011;5630;49.342;10.802;2023-02-10T14:54:57;41.07;;;30.30;;
11151;SDS011;5630;49.342;10.802;2023-02-10T14:57:23;40.67;;;29.23;;
11151;SDS011;5630;49.342;10.802;2023-02-10T14:59:58;40.97;;;29.67;;
11151;SDS011;5630;49.342;10.802;2023-02-10T15:02:28;38.00;;;28.40;;
11151;SDS011;5630;49.342;10.802;2023-02-10T15:04:56;38.93;;;28.20;;
11151;SDS011;5630;49.342;10.802;2023-02-10T15:07:31;39.10;;;28.37;;
11151;SDS011;5630;49.342;10.802;2023-02-10T15:10:02;39.20;;;28.70;;
11151;SDS011;5630;49.342;10.802;2023-02-10T15:12:39;35.67;;;27.33;;
11151;SDS011;5630;49.342;10.802;2023-02-10T15:15:13;36.97;;;27.47;;
11151;SDS011;5630;49.342;10.802;2023-02-10T15:17:43;36.63;;;27.57;;
11151;SDS011;5630;49.342;10.802;2023-02-10T15:23:23;40.33;;;27.07;;
11151;SDS011;5630;49.342;10.802;2023-02-10T15:27:52;37.07;;;26.60;;
11151;SDS011;5630;49.342;10.802;2023-02-10T15:30:22;36.73;;;27.23;;
11151;SDS011;5630;49.342;10.802;2023-02-10T15:32:51;39.80;;;27.90;;
11151;SDS011;5630;49.342;10.802;2023-02-10T15:35:20;35.60;;;26.20;;
11151;SDS011;5630;49.342;10.802;2023-02-10T15:37:49;38.33;;;27.13;;
11151;SDS011;5630;49.342;10.802;2023-02-10T15:40:26;40.67;;;28.27;;
11151;SDS011;5630;49.342;10.802;2023-02-10T15:42:55;41.10;;;28.67;;
11151;SDS011;5630;49.342;10.802;2023-02-10T15:45:22;38.63;;;27.73;;
11151;SDS011;5630;49.342;10.802;2023-02-10T15:47:52;38.30;;;27.77;;
11151;SDS011;5630;49.342;10.802;2023-02-10T15:50:23;39.50;;;27.33;;
11151;SDS011;5630;49.342;10.802;2023-02-10T15:52:49;39.20;;;26.33;;
11151;SDS011;5630;49.342;10.802;2023-02-10T15:55:16;37.70;;;27.30;;
11151;SDS011;5630;49.342;10.802;2023-02-10T15:57:48;37.27;;;27.07;;
11151;SDS011;5630;49.342;10.802;2023-02-10T16:02:46;41.57;;;27.80;;
11151;SDS011;5630;49.342;10.802;2023-02-10T16:05:12;37.17;;;26.50;;
11151;SDS011;5630;49.342;10.802;2023-02-10T16:07:37;41.27;;;27.70;;
11151;SDS011;5630;49.342;10.802;2023-02-10T16:10:03;37.77;;;26.40;;
11151;SDS011;5630;49.342;10.802;2023-02-10T16:12:29;44.27;;;28.50;;
11151;SDS011;5630;49.342;10.802;2023-02-10T16:14:55;33.53;;;25.67;;
11151;SDS011;5630;49.342;10.802;2023-02-10T16:17:24;41.80;;;27.43;;
11151;SDS011;5630;49.342;10.802;2023-02-10T16:19:51;39.83;;;27.00;;
11151;SDS011;5630;49.342;10.802;2023-02-10T16:22:18;37.07;;;26.67;;
11151;SDS011;5630;49.342;10.802;2023-02-10T16:24:43;39.00;;;27.53;;
11151;SDS011;5630;49.342;10.802;2023-02-10T16:27:10;36.97;;;28.10;;
11151;SDS011;5630;49.342;10.802;2023-02-10T16:29:37;40.73;;;28.10;;
11151;SDS011;5630;49.342;10.802;2023-02-10T16:32:03;40.07;;;28.17;;
11151;SDS011;5630;49.342;10.802;2023-02-10T16:34:29;43.83;;;28.03;;
11151;SDS011;5630;49.342;10.802;2023-02-10T16:36:57;48.53;;;28.57;;
11151;SDS011;5630;49.342;10.802;2023-02-10T16:39:23;42.90;;;27.43;;
11151;SDS011;5630;49.342;10.802;2023-02-10T16:41:50;44.27;;;28.83;;
11151;SDS011;5630;49.342;10.802;2023-02-10T16:44:16;43.13;;;30.57;;